Time;durP1;ratioP1;P1;durP2;ratioP2;P2;SDS_P1;SDS_P2;PMS_P1;PMS_P2;Temp;Humidity;BMP_temperature;BMP_pressure;BME280_temperature;BME280_humidity;BME280_pressure;Samples;Min_cycle;Max_cycle;Signal;HPM_P1;HPM_P2
2021/07/08 20:24:36;;;;;;;3.00;1.50;;;21.80;74.20;;;;;;2259602;55;23447;-72
2021/07/08 20:27:04;;;;;;;3.35;1.40;;;21.70;75.90;;;;;;2331779;55;20992;-72
2021/07/08 20:29:30;;;;;;;2.30;1.10;;;21.70;75.90;;;;;;2238511;56;21012;-71
2021/07/08 20:31:59;;;;;;;2.47;1.10;;;21.60;75.70;;;;;;2196505;57;20980;-73
2021/07/08 20:34:25;;;;;;;2.28;1.10;;;21.60;75.70;;;;;;2261745;55;21243;-74
2021/07/08 20:36:51;;;;;;;2.50;1.20;;;21.60;75.70;;;;;;2265689;55;20954;-70
2021/07/08 20:39:18;;;;;;;2.53;1.27;;;21.60;75.70;;;;;;2280404;55;21425;-71
2021/07/08 20:41:45;;;;;;;2.20;1.12;;;21.50;75.60;;;;;;2249173;55;20989;-75
2021/07/08 20:44:12;;;;;;;3.58;1.37;;;21.50;75.60;;;;;;2248534;56;20953;-74
2021/07/08 20:46:39;;;;;;;3.67;1.37;;;21.50;75.70;;;;;;2246325;55;20977;-74
2021/07/08 20:49:05;;;;;;;2.75;1.10;;;21.40;75.60;;;;;;2257456;55;21035;-72
2021/07/08 20:51:32;;;;;;;2.67;1.08;;;21.40;75.70;;;;;;2242967;55;21009;-73
2021/07/08 20:53:58;;;;;;;2.90;1.33;;;21.40;75.70;;;;;;2224587;57;21092;-72
2021/07/08 20:56:25;;;;;;;4.15;1.40;;;21.30;75.70;;;;;;2223181;57;20931;-73
2021/07/08 20:58:53;;;;;;;3.60;1.30;;;21.30;75.70;;;;;;2219723;57;20963;-72
2021/07/08 21:01:19;;;;;;;2.58;1.08;;;21.30;75.80;;;;;;2247625;57;21405;-70
2021/07/08 21:03:46;;;;;;;2.75;1.20;;;21.30;75.80;;;;;;2248163;57;21005;-75
2021/07/08 21:06:15;;;;;;;3.00;1.30;;;21.30;75.70;;;;;;2198069;57;20959;-73
2021/07/08 21:08:41;;;;;;;2.20;1.20;;;21.20;75.70;;;;;;2222760;56;21001;-72
2021/07/08 21:11:08;;;;;;;1.77;0.88;;;21.20;75.70;;;;;;2228016;57;20996;-71
2021/07/08 21:13:34;;;;;;;1.98;1.15;;;21.20;75.80;;;;;;2366043;56;21017;-74
2021/07/08 21:16:00;;;;;;;3.22;1.25;;;21.20;75.80;;;;;;2458548;56;20948;-72
2021/07/08 21:18:26;;;;;;;3.17;1.23;;;21.10;75.70;;;;;;2228193;57;21897;-71
2021/07/08 21:21:05;;;;;;;2.35;1.23;;;21.10;75.80;;;;;;2196343;57;21245;-72
2021/07/08 21:23:32;;;;;;;2.40;1.10;;;21.00;75.70;;;;;;2297386;56;21018;-71
2021/07/08 21:25:58;;;;;;;2.72;1.20;;;21.00;75.80;;;;;;2206969;57;21002;-73
2021/07/08 21:28:24;;;;;;;3.03;1.33;;;21.00;75.90;;;;;;2211204;57;21036;-72
2021/07/08 21:30:53;;;;;;;2.55;1.08;;;21.00;75.90;;;;;;2214200;57;21020;-70
2021/07/08 21:33:19;;;;;;;2.45;1.20;;;21.00;76.10;;;;;;2205024;57;21020;-71
2021/07/08 21:35:46;;;;;;;2.22;1.10;;;21.00;75.90;;;;;;2210998;57;20980;-71
2021/07/08 21:38:12;;;;;;;3.90;1.23;;;21.00;76.00;;;;;;2208040;57;21027;-72
2021/07/08 21:40:40;;;;;;;2.60;1.40;;;20.90;76.00;;;;;;2209542;57;20996;-75
2021/07/08 21:43:37;;;;;;;2.58;1.35;;;20.90;76.00;;;;;;2266962;56;21100;-75
2021/07/08 21:46:34;;;;;;;2.70;0.93;;;20.90;76.10;;;;;;2248191;59;21097;-71
2021/07/08 21:49:00;;;;;;;2.42;1.12;;;20.90;76.20;;;;;;2254621;59;21117;-70
2021/07/08 21:51:38;;;;;;;2.10;1.02;;;20.90;76.20;;;;;;2248482;59;21086;-72
2021/07/08 21:54:07;;;;;;;2.55;1.08;;;20.90;76.30;;;;;;2238746;56;21036;-74
2021/07/08 21:56:34;;;;;;;2.60;1.27;;;20.80;76.20;;;;;;2261381;55;20994;-72
2021/07/08 21:59:00;;;;;;;3.65;1.52;;;20.80;76.30;;;;;;2268665;55;21052;-71
2021/07/08 22:01:28;;;;;;;2.58;1.25;;;20.80;76.40;;;;;;2350675;55;21001;-70
2021/07/08 22:03:58;;;;;;;2.65;1.23;;;20.80;76.40;;;;;;2259659;55;20973;-72
2021/07/08 22:06:25;;;;;;;3.47;1.52;;;20.80;76.30;;;;;;2490223;55;20989;-73
2021/07/08 22:08:53;;;;;;;2.33;1.30;;;20.80;76.40;;;;;;2260695;55;21016;-70
2021/07/08 22:11:20;;;;;;;3.03;1.42;;;20.80;77.10;;;;;;2257614;56;21022;-73
2021/07/08 22:13:46;;;;;;;2.60;1.58;;;20.80;76.60;;;;;;2264749;55;20960;-72
2021/07/08 22:16:15;;;;;;;2.60;1.37;;;20.80;76.70;;;;;;2441393;55;21033;-72
2021/07/08 22:18:43;;;;;;;2.95;1.45;;;20.80;76.60;;;;;;2239116;56;21032;-74
2021/07/08 22:21:24;;;;;;;;;;;20.80;76.80;;;;;;2270588;55;21505;-70
2021/07/08 22:23:50;;;;;;;3.33;1.45;;;20.80;75.80;;;;;;2295257;55;20117;-73
2021/07/08 22:26:17;;;;;;;3.62;1.52;;;20.80;76.80;;;;;;2260504;55;20929;-73
2021/07/08 22:28:46;;;;;;;2.72;1.33;;;20.80;76.80;;;;;;2261302;56;21764;-71
2021/07/08 22:31:13;;;;;;;2.40;1.25;;;20.80;77.00;;;;;;2240994;56;21018;-72
2021/07/08 22:33:41;;;;;;;3.47;1.27;;;20.80;77.00;;;;;;2242578;56;21914;-71
2021/07/08 22:36:07;;;;;;;2.40;1.30;;;20.80;77.10;;;;;;2390930;55;20950;-75
2021/07/08 22:38:34;;;;;;;2.22;1.20;;;20.80;77.10;;;;;;2260938;55;21000;-74
2021/07/08 22:41:03;;;;;;;3.37;1.35;;;20.70;77.00;;;;;;2260952;55;20960;-73
2021/07/08 22:43:32;;;;;;;2.30;1.10;;;20.70;77.00;;;;;;2469482;55;21036;-73
2021/07/08 22:45:58;;;;;;;4.95;1.10;;;20.80;77.10;;;;;;2261221;56;20960;-71
2021/07/08 22:48:26;;;;;;;2.85;1.40;;;20.80;77.10;;;;;;2261387;56;20936;-74
2021/07/08 22:50:52;;;;;;;3.37;1.00;;;20.80;77.10;;;;;;2261172;56;21545;-71
2021/07/08 22:53:18;;;;;;;2.00;1.10;;;20.80;77.10;;;;;;2260914;56;20968;-70
2021/07/08 22:55:45;;;;;;;2.67;1.40;;;20.70;77.10;;;;;;2404713;55;21018;-71
2021/07/08 22:58:11;;;;;;;2.08;1.00;;;20.70;77.10;;;;;;2259741;56;21794;-73
2021/07/08 23:00:41;;;;;;;3.60;1.40;;;20.80;77.30;;;;;;2246445;55;21069;-73
2021/07/08 23:03:07;;;;;;;3.40;1.35;;;20.80;77.10;;;;;;2261218;56;21049;-73
2021/07/08 23:05:33;;;;;;;2.75;1.37;;;20.80;77.20;;;;;;2261558;55;20960;-73
2021/07/08 23:07:59;;;;;;;3.50;1.80;;;20.80;77.30;;;;;;2263188;55;21040;-75
2021/07/08 23:10:26;;;;;;;3.37;1.75;;;20.80;77.30;;;;;;2261063;55;20948;-75
2021/07/08 23:12:52;;;;;;;3.05;1.62;;;20.80;77.30;;;;;;2260868;55;21728;-71
2021/07/08 23:15:19;;;;;;;2.90;1.70;;;20.80;77.40;;;;;;2261320;55;20964;-73
2021/07/08 23:17:45;;;;;;;3.25;1.80;;;20.80;77.50;;;;;;2327114;56;20980;-71
2021/07/08 23:20:13;;;;;;;4.43;1.60;;;20.80;77.60;;;;;;2261233;56;20997;-76
2021/07/08 23:22:39;;;;;;;4.05;1.48;;;20.80;77.60;;;;;;2261482;55;21448;-73
2021/07/08 23:25:06;;;;;;;2.45;1.30;;;20.80;77.60;;;;;;2261252;55;20944;-74
2021/07/08 23:27:33;;;;;;;2.45;1.20;;;20.80;77.50;;;;;;2261018;56;20981;-76
2021/07/08 23:29:59;;;;;;;2.53;1.35;;;20.90;77.60;;;;;;2270952;55;20987;-72
2021/07/08 23:32:28;;;;;;;2.37;1.30;;;20.80;77.50;;;;;;2452108;55;20995;-72
2021/07/08 23:34:54;;;;;;;2.80;1.50;;;20.80;77.40;;;;;;2260665;55;20956;-73
2021/07/08 23:37:20;;;;;;;2.35;1.12;;;20.80;77.40;;;;;;2262082;56;21023;-73
2021/07/08 23:39:47;;;;;;;2.05;1.00;;;20.80;77.40;;;;;;2262000;55;21032;-72
